createdAt,value
2022-11-30T00:01:59.425Z,102240.13
2022-11-30T00:04:28.826Z,102245.66
2022-11-30T00:06:57.155Z,102248.41
2022-11-30T00:09:25.150Z,102248.28
2022-11-30T00:11:52.979Z,102251.38
2022-11-30T00:14:20.820Z,102244.94
2022-11-30T00:16:48.702Z,102251.22
2022-11-30T00:19:16.602Z,102257.69
2022-11-30T00:21:45.858Z,102255.25
2022-11-30T00:24:13.729Z,102246.47
2022-11-30T00:26:41.747Z,102248.44
2022-11-30T00:29:09.639Z,102246.94
2022-11-30T00:31:37.495Z,102246.94
2022-11-30T00:34:05.509Z,102247.09
2022-11-30T00:36:33.401Z,102258.84
2022-11-30T00:39:02.611Z,102254.28
2022-11-30T00:41:30.553Z,102258.84
2022-11-30T00:43:58.628Z,102258.25
2022-11-30T00:46:26.490Z,102269.25
2022-11-30T00:48:54.374Z,102272.22
2022-11-30T00:51:22.327Z,102277.06
2022-11-30T00:53:50.327Z,102283.25
2022-11-30T00:56:19.649Z,102280.78
2022-11-30T00:58:47.525Z,102282.13
2022-11-30T01:01:15.427Z,102276.53
2022-11-30T01:03:43.299Z,102287.44
2022-11-30T01:06:11.637Z,102286.59
2022-11-30T01:08:39.536Z,102282.13
2022-11-30T01:11:10.494Z,102288.56
2022-11-30T01:13:39.676Z,102290.31
2022-11-30T01:16:12.500Z,102289.53
2022-11-30T01:18:40.659Z,102296.72
2022-11-30T01:21:09.682Z,102297.84
2022-11-30T01:23:37.806Z,102300.84
2022-11-30T01:26:05.665Z,102299.97
2022-11-30T01:28:33.981Z,102308.25
2022-11-30T01:31:05.722Z,102301.97
2022-11-30T01:33:34.376Z,102290.56
2022-11-30T01:36:04.167Z,102301.47
2022-11-30T01:38:36.600Z,102306.28
2022-11-30T01:41:05.440Z,102296.38
2022-11-30T01:43:42.325Z,102300.84
2022-11-30T01:46:25.712Z,102300.84
2022-11-30T01:49:00.655Z,102302.94
2022-11-30T01:51:33.412Z,102302.22
2022-11-30T01:54:02.597Z,102307.53
2022-11-30T01:56:30.559Z,102299.34
2022-11-30T01:58:58.687Z,102306.53
2022-11-30T02:01:28.130Z,102301.81
2022-11-30T02:04:01.260Z,102300.84
2022-11-30T02:06:30.493Z,102299.09
2022-11-30T02:08:58.923Z,102313.22
2022-11-30T02:11:28.652Z,102308.03
2022-11-30T02:14:19.373Z,102311.09
2022-11-30T02:16:58.178Z,102311.09
2022-11-30T02:19:57.200Z,102312.69
2022-11-30T02:22:38.350Z,102313.69
2022-11-30T02:25:13.788Z,102311.09
2022-11-30T02:27:59.456Z,102308.63
2022-11-30T02:30:31.457Z,102312.34
2022-11-30T02:33:06.038Z,102311.00
2022-11-30T02:35:37.576Z,102314.69
2022-11-30T02:38:06.294Z,102314.84
2022-11-30T02:40:34.285Z,102301.97
2022-11-30T02:43:04.565Z,102302.06
2022-11-30T02:45:39.138Z,102291.94
2022-11-30T02:48:10.259Z,102294.06
2022-11-30T02:50:42.203Z,102289.97
2022-11-30T02:53:11.194Z,102295.53
2022-11-30T02:55:39.088Z,102297.00
2022-11-30T02:58:07.071Z,102297.75
2022-11-30T03:00:36.328Z,102295.75
2022-11-30T03:03:04.787Z,102299.34
2022-11-30T03:05:33.335Z,102305.78
2022-11-30T03:08:01.258Z,102301.97
2022-11-30T03:10:29.329Z,102304.44
2022-11-30T03:12:59.138Z,102299.84
2022-11-30T03:15:27.248Z,102300.94
2022-11-30T03:17:56.579Z,102293.78
2022-11-30T03:20:24.591Z,102289.81
2022-11-30T03:22:52.517Z,102300.84
2022-11-30T03:25:20.825Z,102301.69
2022-11-30T03:27:48.967Z,102302.78
2022-11-30T03:30:17.242Z,102301.09
2022-11-30T03:32:45.187Z,102302.06
2022-11-30T03:35:14.507Z,102313.31
2022-11-30T03:37:42.447Z,102312.97
2022-11-30T03:40:11.418Z,102311.22
2022-11-30T03:42:39.380Z,102313.56
2022-11-30T03:45:08.099Z,102307.16
2022-11-30T03:47:36.178Z,102313.06
2022-11-30T03:50:04.908Z,102312.44
2022-11-30T03:52:34.176Z,102318.75
2022-11-30T03:55:02.041Z,102318.03
2022-11-30T03:57:30.020Z,102323.22
2022-11-30T03:59:57.869Z,102325.94
2022-11-30T04:02:25.862Z,102322.72
2022-11-30T04:04:53.944Z,102334.63
2022-11-30T04:07:22.033Z,102330.88
2022-11-30T04:09:51.278Z,102330.88
2022-11-30T04:12:19.107Z,102320.16
2022-11-30T04:14:47.239Z,102327.28
2022-11-30T04:17:15.271Z,102340.28
2022-11-30T04:19:43.290Z,102342.91
2022-11-30T04:22:11.381Z,102344.75
2022-11-30T04:24:39.212Z,102352.81
2022-11-30T04:27:08.462Z,102335.59
2022-11-30T04:29:36.352Z,102336.47
2022-11-30T04:32:04.603Z,102342.53
2022-11-30T04:34:32.574Z,102339.34
2022-11-30T04:37:00.805Z,102340.06
2022-11-30T04:39:28.751Z,102351.06
2022-11-30T04:41:56.683Z,102338.94
2022-11-30T04:44:26.128Z,102341.91
2022-11-30T04:46:54.165Z,102350.84
2022-11-30T04:49:22.032Z,102341.66
2022-11-30T04:51:50.043Z,102346.75
2022-11-30T04:54:17.896Z,102342.06
2022-11-30T04:56:45.914Z,102330.06
2022-11-30T04:59:13.740Z,102341.81
2022-11-30T05:01:43.019Z,102347.09
2022-11-30T05:04:11.336Z,102352.28
2022-11-30T05:06:39.386Z,102358.63
2022-11-30T05:09:09.813Z,102359.34
2022-11-30T05:11:37.945Z,102359.22
2022-11-30T05:14:06.383Z,102361.69
2022-11-30T05:16:34.374Z,102367.16
2022-11-30T05:19:03.984Z,102363.56
2022-11-30T05:21:32.227Z,102370.84
2022-11-30T05:24:00.366Z,102371.09
2022-11-30T05:26:28.276Z,102371.00
2022-11-30T05:28:56.616Z,102379.00
2022-11-30T05:31:24.757Z,102376.78
2022-11-30T05:33:53.427Z,102381.38
2022-11-30T05:36:22.948Z,102381.50
2022-11-30T05:38:50.855Z,102384.59
2022-11-30T05:41:18.729Z,102379.41
2022-11-30T05:43:46.602Z,102380.88
2022-11-30T05:46:14.592Z,102383.59
2022-11-30T05:48:42.466Z,102384.59
2022-11-30T05:51:12.162Z,102383.47
2022-11-30T05:53:41.600Z,102381.75
2022-11-30T05:56:11.961Z,102384.34
2022-11-30T05:58:40.807Z,102388.81
2022-11-30T06:01:09.185Z,102397.94
2022-11-30T06:03:37.484Z,102390.16
2022-11-30T06:06:05.659Z,102393.25
2022-11-30T06:08:34.005Z,102394.75
2022-11-30T06:11:03.677Z,102395.97
2022-11-30T06:13:32.764Z,102396.59
2022-11-30T06:16:01.190Z,102394.75
2022-11-30T06:18:29.639Z,102391.25
2022-11-30T06:21:02.440Z,102397.56
2022-11-30T06:23:30.696Z,102395.34
2022-11-30T06:25:58.564Z,102404.25
2022-11-30T06:28:27.790Z,102405.25
2022-11-30T06:30:59.588Z,102400.78
2022-11-30T06:33:27.787Z,102403.41
2022-11-30T06:35:56.358Z,102402.53
2022-11-30T06:38:25.887Z,102399.06
2022-11-30T06:40:54.333Z,102407.22
2022-11-30T06:43:22.341Z,102399.31
2022-11-30T06:45:51.714Z,102410.31
2022-11-30T06:48:22.434Z,102412.28
2022-11-30T06:50:50.607Z,102409.69
2022-11-30T06:53:18.585Z,102410.31
2022-11-30T06:55:46.578Z,102418.59
2022-11-30T06:58:14.529Z,102426.13
2022-11-30T07:00:42.771Z,102408.81
2022-11-30T07:03:12.939Z,102420.59
2022-11-30T07:05:43.537Z,102412.03
2022-11-30T07:08:11.608Z,102429.84
2022-11-30T07:10:44.236Z,102438.38
2022-11-30T07:13:12.948Z,102436.00
2022-11-30T07:15:43.502Z,102443.19
2022-11-30T07:18:13.372Z,102443.44
2022-11-30T07:20:41.453Z,102447.47
2022-11-30T07:23:27.460Z,102448.09
2022-11-30T07:26:09.575Z,102456.25
2022-11-30T07:28:39.910Z,102455.28
2022-11-30T07:31:16.793Z,102460.25
2022-11-30T07:33:46.234Z,102467.41
2022-11-30T07:36:14.429Z,102462.22
2022-11-30T07:38:42.409Z,102466.41
2022-11-30T07:41:10.920Z,102471.50
2022-11-30T07:43:39.471Z,102470.50
2022-11-30T07:46:08.466Z,102469.66
2022-11-30T07:48:36.370Z,102474.31
2022-11-30T07:51:07.093Z,102475.81
2022-11-30T07:53:35.553Z,102480.16
2022-11-30T07:56:05.336Z,102487.81
2022-11-30T07:58:33.756Z,102486.72
2022-11-30T08:01:03.780Z,102492.16
2022-11-30T08:03:36.612Z,102497.94
2022-11-30T08:06:08.826Z,102494.13
2022-11-30T08:08:40.931Z,102499.34
2022-11-30T08:11:11.159Z,102506.38
2022-11-30T08:13:39.645Z,102501.03
2022-11-30T08:16:10.221Z,102499.34
2022-11-30T08:18:38.067Z,102513.28
2022-11-30T08:21:09.737Z,102503.75
2022-11-30T08:23:39.632Z,102508.13
2022-11-30T08:26:09.813Z,102511.56
2022-11-30T08:28:38.184Z,102508.75
2022-11-30T08:31:09.904Z,102520.72
2022-11-30T08:33:38.892Z,102522.47
2022-11-30T08:36:09.510Z,102515.03
2022-11-30T08:38:38.229Z,102521.34
2022-11-30T08:41:07.205Z,102518.63
2022-11-30T08:43:38.257Z,102531.34
2022-11-30T08:46:34.556Z,102532.88
2022-11-30T08:49:13.064Z,102528.91
2022-11-30T08:52:15.870Z,102533.25
2022-11-30T08:54:36.902Z,102539.81
2022-11-30T08:57:05.781Z,102534.25
2022-11-30T08:59:33.804Z,102534.25
2022-11-30T09:02:01.833Z,102535.97
2022-11-30T09:04:30.126Z,102535.63
2022-11-30T09:07:01.027Z,102545.00
2022-11-30T09:09:29.183Z,102542.03
2022-11-30T09:11:57.532Z,102546.84
2022-11-30T09:14:25.620Z,102544.03
2022-11-30T09:16:54.464Z,102548.34
2022-11-30T09:19:23.008Z,102550.44
2022-11-30T09:21:52.275Z,102551.06
2022-11-30T09:24:21.992Z,102552.28
2022-11-30T09:26:49.795Z,102555.16
2022-11-30T09:29:17.770Z,102553.41
2022-11-30T09:31:45.708Z,102560.47
2022-11-30T09:34:14.121Z,102552.06
2022-11-30T09:36:42.072Z,102549.88
2022-11-30T09:39:13.142Z,102544.53
2022-11-30T09:42:10.582Z,102551.94
2022-11-30T09:44:51.056Z,102549.47
2022-11-30T09:47:43.057Z,102556.03
2022-11-30T09:50:15.567Z,102544.50
2022-11-30T09:52:47.780Z,102542.41
2022-11-30T09:55:27.544Z,102542.03
2022-11-30T09:58:01.932Z,102551.81
2022-11-30T10:00:31.879Z,102548.00
2022-11-30T10:03:05.659Z,102555.94
2022-11-30T10:05:47.418Z,102555.69
2022-11-30T10:08:28.768Z,102550.09
2022-11-30T10:11:14.941Z,102555.56
2022-11-30T10:13:57.361Z,102550.97
2022-11-30T10:16:36.175Z,102556.31
2022-11-30T10:19:16.870Z,102557.88
2022-11-30T10:21:58.554Z,102550.72
2022-11-30T10:24:37.207Z,102551.56
2022-11-30T10:27:16.045Z,102547.97
2022-11-30T10:29:45.545Z,102558.94
2022-11-30T10:32:20.927Z,102551.81
2022-11-30T10:34:52.746Z,102555.50
2022-11-30T10:37:31.355Z,102555.00
2022-11-30T10:40:02.750Z,102546.66
2022-11-30T10:42:36.161Z,102550.53
2022-11-30T10:45:10.937Z,102550.78
2022-11-30T10:47:44.712Z,102547.03
2022-11-30T10:50:17.894Z,102549.75
2022-11-30T10:52:48.736Z,102563.22
2022-11-30T10:55:20.444Z,102549.59
2022-11-30T10:57:51.029Z,102560.25
2022-11-30T11:00:21.388Z,102558.16
2022-11-30T11:02:50.680Z,102553.97
2022-11-30T11:05:22.993Z,102541.69
2022-11-30T11:07:55.299Z,102547.53
2022-11-30T11:10:30.456Z,102554.22
2022-11-30T11:12:58.715Z,102552.72
2022-11-30T11:15:30.280Z,102554.88
2022-11-30T11:18:26.102Z,102555.69
2022-11-30T11:21:07.124Z,102555.44
2022-11-30T11:23:38.189Z,102553.50
2022-11-30T11:26:07.586Z,102560.31
2022-11-30T11:28:37.614Z,102559.03
2022-11-30T11:31:20.142Z,102556.06
2022-11-30T11:33:53.076Z,102555.22
2022-11-30T11:36:28.872Z,102563.59
2022-11-30T11:38:58.097Z,102566.22
2022-11-30T11:41:29.902Z,102566.72
2022-11-30T11:44:03.578Z,102563.03
2022-11-30T11:46:34.328Z,102557.28
2022-11-30T11:49:05.647Z,102561.13
2022-11-30T11:51:37.275Z,102558.78
2022-11-30T11:54:19.627Z,102574.06
2022-11-30T11:56:48.030Z,102566.97
2022-11-30T11:59:22.391Z,102572.31
2022-11-30T12:01:58.438Z,102567.59
2022-11-30T12:04:51.456Z,102575.38
2022-11-30T12:07:28.586Z,102568.97
2022-11-30T12:10:50.045Z,102574.06
2022-11-30T12:13:13.993Z,102569.25
2022-11-30T12:15:54.208Z,102575.09
2022-11-30T12:18:29.242Z,102577.97
2022-11-30T12:21:01.659Z,102574.00
2022-11-30T12:23:58.125Z,102574.03
2022-11-30T12:26:35.594Z,102573.41
2022-11-30T12:29:21.384Z,102564.22
2022-11-30T12:32:03.483Z,102569.75
2022-11-30T12:35:00.954Z,102565.66
2022-11-30T12:37:41.693Z,102568.63
2022-11-30T12:40:27.312Z,102571.13
2022-11-30T12:43:02.927Z,102565.91
2022-11-30T12:45:36.867Z,102576.81
2022-11-30T12:48:16.132Z,102574.00
2022-11-30T12:51:01.906Z,102573.66
2022-11-30T12:53:35.544Z,102576.38
2022-11-30T12:56:10.651Z,102573.06
2022-11-30T12:58:47.375Z,102578.84
2022-11-30T13:01:31.739Z,102567.69
2022-11-30T13:04:07.898Z,102566.72
2022-11-30T13:06:42.864Z,102578.72
2022-11-30T13:09:17.051Z,102575.31
2022-11-30T13:11:49.257Z,102579.06
2022-11-30T13:14:22.622Z,102578.22
2022-11-30T13:16:57.364Z,102584.69
2022-11-30T13:19:40.981Z,102578.13
2022-11-30T13:22:17.824Z,102587.16
2022-11-30T13:24:54.639Z,102582.47
2022-11-30T13:27:26.403Z,102587.91
2022-11-30T13:30:26.924Z,102584.28
2022-11-30T13:32:58.956Z,102586.25
2022-11-30T13:35:46.272Z,102582.94
2022-11-30T13:38:36.488Z,102589.13
2022-11-30T13:41:08.650Z,102593.59
2022-11-30T13:43:42.725Z,102587.84
2022-11-30T13:46:20.376Z,102596.25
2022-11-30T13:48:49.377Z,102597.91
2022-11-30T13:51:35.831Z,102597.41
2022-11-30T13:54:42.315Z,102592.38
2022-11-30T13:57:20.226Z,102595.72
2022-11-30T13:59:51.547Z,102591.41
2022-11-30T14:02:59.205Z,102589.47
2022-11-30T14:05:43.018Z,102596.00
2022-11-30T14:08:40.851Z,102593.25
2022-11-30T14:11:38.183Z,102593.91
2022-11-30T14:14:45.603Z,102601.03
2022-11-30T14:17:27.010Z,102609.09
2022-11-30T14:19:59.643Z,102602.56
2022-11-30T14:22:30.076Z,102606.56
2022-11-30T14:24:58.757Z,102606.56
2022-11-30T14:27:29.844Z,102607.94
2022-11-30T14:30:03.070Z,102615.91
2022-11-30T14:32:37.861Z,102604.88
2022-11-30T14:35:10.714Z,102604.78
2022-11-30T14:37:44.610Z,102614.25
2022-11-30T14:40:19.863Z,102608.31
2022-11-30T14:42:50.107Z,102615.25
2022-11-30T14:45:24.721Z,102613.28
2022-11-30T14:48:06.894Z,102616.53
2022-11-30T14:50:36.602Z,102617.75
2022-11-30T14:53:26.860Z,102619.47
2022-11-30T14:56:14.479Z,102632.22
2022-11-30T14:58:55.354Z,102627.56
2022-11-30T15:01:36.529Z,102626.56
2022-11-30T15:04:08.112Z,102623.53
2022-11-30T15:06:39.426Z,102626.97
2022-11-30T15:09:16.426Z,102641.22
2022-11-30T15:11:46.205Z,102633.06
2022-11-30T15:14:14.376Z,102630.97
2022-11-30T15:16:50.827Z,102635.56
2022-11-30T15:19:24.432Z,102635.91
2022-11-30T15:21:52.784Z,102633.75
2022-11-30T15:24:21.272Z,102635.34
2022-11-30T15:26:56.224Z,102635.50
2022-11-30T15:29:29.031Z,102633.28
2022-11-30T15:32:00.417Z,102631.34
2022-11-30T15:34:40.529Z,102634.34
2022-11-30T15:37:08.674Z,102637.28
2022-11-30T15:39:37.254Z,102636.19
2022-11-30T15:42:06.537Z,102640.41
2022-11-30T15:44:44.196Z,102642.06
2022-11-30T15:47:27.573Z,102636.88
2022-11-30T15:49:56.722Z,102639.91
2022-11-30T15:52:28.241Z,102649.69
2022-11-30T15:54:58.771Z,102646.38
2022-11-30T15:57:30.835Z,102643.13
2022-11-30T16:00:09.015Z,102644.00
2022-11-30T16:02:39.438Z,102643.38
2022-11-30T16:05:25.879Z,102647.34
2022-11-30T16:07:55.923Z,102637.69
2022-11-30T16:10:25.953Z,102644.25
2022-11-30T16:12:55.495Z,102651.75
2022-11-30T16:15:26.530Z,102648.06
2022-11-30T16:18:00.200Z,102656.09
2022-11-30T16:20:28.236Z,102654.06
2022-11-30T16:22:59.885Z,102664.25
2022-11-30T16:25:30.782Z,102659.06
2022-11-30T16:27:58.845Z,102659.59
2022-11-30T16:30:27.774Z,102657.03
2022-11-30T16:32:57.196Z,102665.94
2022-11-30T16:35:30.651Z,102659.53
2022-11-30T16:37:58.719Z,102675.75
2022-11-30T16:40:26.851Z,102671.53
2022-11-30T16:42:54.973Z,102675.84
2022-11-30T16:45:25.060Z,102674.50
2022-11-30T16:47:53.371Z,102680.72
2022-11-30T16:50:22.923Z,102684.66
2022-11-30T16:52:50.972Z,102680.31
2022-11-30T16:55:21.355Z,102685.63
2022-11-30T16:57:50.426Z,102694.56
2022-11-30T17:00:20.621Z,102685.53
2022-11-30T17:02:57.752Z,102687.25
2022-11-30T17:05:27.560Z,102694.44
2022-11-30T17:07:55.931Z,102697.28
2022-11-30T17:10:24.028Z,102703.47
2022-11-30T17:12:52.085Z,102701.50
2022-11-30T17:15:23.524Z,102704.84
2022-11-30T17:17:51.558Z,102708.56
2022-11-30T17:20:20.194Z,102700.50
2022-11-30T17:22:49.527Z,102706.72
2022-11-30T17:25:20.612Z,102703.22
2022-11-30T17:27:50.542Z,102712.16
2022-11-30T17:30:20.887Z,102707.72
2022-11-30T17:32:49.104Z,102714.59
2022-11-30T17:35:17.140Z,102706.84
2022-11-30T17:37:45.040Z,102710.19
2022-11-30T17:40:16.092Z,102719.78
2022-11-30T17:42:44.840Z,102713.47
2022-11-30T17:45:13.047Z,102721.66
2022-11-30T17:47:41.080Z,102724.72
2022-11-30T17:50:10.109Z,102724.84
2022-11-30T17:52:38.148Z,102723.84
2022-11-30T17:55:06.969Z,102723.22
2022-11-30T17:57:38.156Z,102724.41
2022-11-30T18:00:07.704Z,102727.88
2022-11-30T18:02:35.828Z,102728.88
2022-11-30T18:05:03.981Z,102729.00
2022-11-30T18:07:31.954Z,102736.63
2022-11-30T18:10:01.745Z,102733.16
2022-11-30T18:12:29.566Z,102730.19
2022-11-30T18:14:58.841Z,102735.63
2022-11-30T18:17:26.779Z,102737.91
2022-11-30T18:19:54.660Z,102742.25
2022-11-30T18:22:22.643Z,102740.41
2022-11-30T18:24:51.097Z,102741.91
2022-11-30T18:27:19.054Z,102744.75
2022-11-30T18:29:46.897Z,102741.06
2022-11-30T18:32:16.301Z,102741.81
2022-11-30T18:34:49.202Z,102742.31
2022-11-30T18:37:17.601Z,102746.78
2022-11-30T18:39:45.788Z,102749.50
2022-11-30T18:42:16.363Z,102748.41
2022-11-30T18:44:45.027Z,102752.00
2022-11-30T18:47:13.329Z,102752.63
2022-11-30T18:49:43.251Z,102748.28
2022-11-30T18:52:12.103Z,102747.41
2022-11-30T18:54:40.303Z,102746.44
2022-11-30T18:57:08.520Z,102752.41
2022-11-30T18:59:36.695Z,102758.94
2022-11-30T19:02:05.867Z,102761.38
2022-11-30T19:04:34.179Z,102755.81
2022-11-30T19:07:04.128Z,102762.13
2022-11-30T19:09:32.440Z,102766.81
2022-11-30T19:12:00.698Z,102763.66
2022-11-30T19:14:29.144Z,102765.31
2022-11-30T19:16:57.967Z,102761.38
2022-11-30T19:19:28.148Z,102764.31
2022-11-30T19:21:58.217Z,102766.94
2022-11-30T19:24:28.361Z,102767.81
2022-11-30T19:26:56.823Z,102776.84
2022-11-30T19:29:24.895Z,102774.78
2022-11-30T19:31:52.739Z,102778.47
2022-11-30T19:34:21.379Z,102774.88
2022-11-30T19:36:49.686Z,102780.53
2022-11-30T19:39:18.217Z,102770.75
2022-11-30T19:41:48.056Z,102777.03
2022-11-30T19:44:16.767Z,102778.78
2022-11-30T19:46:44.804Z,102779.75
2022-11-30T19:49:12.823Z,102776.06
2022-11-30T19:51:40.790Z,102777.91
2022-11-30T19:54:08.819Z,102773.34
2022-11-30T19:56:38.904Z,102784.88
2022-11-30T19:59:08.418Z,102784.88
2022-11-30T20:01:37.537Z,102783.78
2022-11-30T20:04:06.069Z,102781.28
2022-11-30T20:06:37.461Z,102784.13
2022-11-30T20:09:07.501Z,102778.94
2022-11-30T20:11:36.132Z,102785.34
2022-11-30T20:14:04.588Z,102780.78
2022-11-30T20:16:34.024Z,102782.72
2022-11-30T20:19:03.196Z,102792.41
2022-11-30T20:21:33.436Z,102790.78
2022-11-30T20:24:04.523Z,102790.31
2022-11-30T20:26:34.651Z,102800.69
2022-11-30T20:29:04.257Z,102807.84
2022-11-30T20:31:35.489Z,102804.25
2022-11-30T20:34:03.850Z,102802.53
2022-11-30T20:36:32.226Z,102808.84
2022-11-30T20:39:00.662Z,102806.88
2022-11-30T20:41:28.624Z,102807.84
2022-11-30T20:43:57.005Z,102806.13
2022-11-30T20:46:27.425Z,102805.13
2022-11-30T20:48:57.612Z,102799.91
2022-11-30T20:51:32.206Z,102808.09
2022-11-30T20:54:05.704Z,102807.09
2022-11-30T20:56:35.377Z,102803.50
2022-11-30T20:59:06.128Z,102805.25
2022-11-30T21:01:38.859Z,102811.69
2022-11-30T21:04:08.722Z,102814.41
2022-11-30T21:06:37.037Z,102814.31
2022-11-30T21:09:05.708Z,102810.81
2022-11-30T21:11:34.051Z,102819.75
2022-11-30T21:14:02.409Z,102813.84
2022-11-30T21:16:30.659Z,102809.59
2022-11-30T21:18:59.850Z,102809.84
2022-11-30T21:21:31.672Z,102813.66
2022-11-30T21:24:01.187Z,102817.34
2022-11-30T21:26:31.732Z,102821.03
2022-11-30T21:29:02.061Z,102816.94
2022-11-30T21:31:30.608Z,102817.66
2022-11-30T21:33:58.792Z,102808.31
2022-11-30T21:36:27.449Z,102811.03
2022-11-30T21:39:04.420Z,102813.75
2022-11-30T21:41:34.080Z,102812.00
2022-11-30T21:44:02.216Z,102810.06
2022-11-30T21:46:30.319Z,102821.28
2022-11-30T21:48:58.913Z,102813.97
2022-11-30T21:51:28.873Z,102816.59
2022-11-30T21:54:00.406Z,102818.31
2022-11-30T21:56:29.990Z,102821.81
2022-11-30T21:58:58.475Z,102816.03
2022-11-30T22:01:28.461Z,102821.69
2022-11-30T22:03:58.024Z,102821.69
2022-11-30T22:06:27.532Z,102826.16
2022-11-30T22:09:02.654Z,102833.34
2022-11-30T22:11:31.743Z,102836.91
2022-11-30T22:13:59.771Z,102829.75
2022-11-30T22:16:35.960Z,102826.25
2022-11-30T22:19:05.661Z,102829.97
2022-11-30T22:21:34.244Z,102832.72
2022-11-30T22:24:05.529Z,102829.97
2022-11-30T22:26:35.238Z,102833.44
2022-11-30T22:29:06.427Z,102840.41
2022-11-30T22:31:37.760Z,102837.91
2022-11-30T22:34:06.540Z,102831.28
2022-11-30T22:36:36.415Z,102832.03
2022-11-30T22:39:09.187Z,102838.56
2022-11-30T22:41:37.632Z,102838.56
2022-11-30T22:44:05.982Z,102836.91
2022-11-30T22:46:35.797Z,102837.50
2022-11-30T22:49:06.088Z,102837.38
2022-11-30T22:51:35.598Z,102836.50
2022-11-30T22:54:05.725Z,102841.41
2022-11-30T22:56:35.426Z,102834.13
2022-11-30T22:59:04.601Z,102837.38
2022-11-30T23:01:34.578Z,102835.09
2022-11-30T23:04:06.096Z,102828.56
2022-11-30T23:06:35.169Z,102840.53
2022-11-30T23:09:04.237Z,102838.03
2022-11-30T23:11:34.513Z,102843.72
2022-11-30T23:14:08.035Z,102844.69
2022-11-30T23:16:37.712Z,102842.84
2022-11-30T23:19:07.171Z,102839.59
2022-11-30T23:21:41.049Z,102848.72
2022-11-30T23:24:13.729Z,102844.38
2022-11-30T23:26:43.793Z,102848.50
2022-11-30T23:29:13.529Z,102849.47
2022-11-30T23:31:43.478Z,102848.59
2022-11-30T23:34:13.513Z,102848.94
2022-11-30T23:36:41.365Z,102844.25
2022-11-30T23:39:11.178Z,102847.84
2022-11-30T23:41:39.736Z,102856.75
2022-11-30T23:44:09.560Z,102851.97
2022-11-30T23:46:38.188Z,102846.53
2022-11-30T23:49:06.329Z,102843.72
2022-11-30T23:51:34.196Z,102846.53
2022-11-30T23:54:02.194Z,102840.22
2022-11-30T23:56:30.238Z,102836.75
2022-11-30T23:58:58.288Z,102832.19
